CheckWX is a tool to help pilots better visualize weather data.  It is not intended as a substitute for an official pre-flight weather briefing.

06:07:46 UTC

LSZL TAF
Locarno Airport
Locarno, Switzerland
TAF LSZL 200525Z 2006/2015 VRB02KT 4300 BR NSC BECMG 2007/2009 CAVOK

Feb-20@
06:00 UTC

Feb-20 @ 06:00 UTC

Feb-20@
07:00 UTC

Feb-20 @ 07:00 UTC

TAF LSZL 200525Z 2006/2015 VRB02KT 4300 BR NSC
Wind
  • Variable at 2 KTS
Visibility
4,297 meters
Conditions
Mist
Cloud Levels
  • No significant clouds

Feb-20@
07:00 UTC

Feb-20 @ 07:00 UTC

Feb-20@
15:00 UTC

Feb-20 @ 15:00 UTC

BECMG 2007/2009 CAVOK

Becoming

BecomingConditions expected by Wed, Feb 20, 2019 @ 09:00 UTC

Wind
  • Variable at 2 KTS
Visibility
10,000+ meters
Conditions
No significant weather
Cloud Levels
  • No significant clouds